Ellis, KS (67637)

6:17 PM CDT on September 04, 2015 (GMT -0500)
Fairgrounds | | Change Station
CLOSE
Current Station
Personal Weather Station
Location: Hays, KS
Elevation: 2083 ft
Nearby Weather Stations

Elev 2083 ft 38.91 °N, 99.37 °W | Updated 15 seconds ago

Clear
Clear
97.7 °F
Feels Like 98 °F
N
10.0
Wind Variable Wind from South
Gusts 24.0 mph

Today
High -- | Low -- °F
--% Chance of Precip.
Yesterday
High -- | Low -- °F
Precip. -- in
7:09 AM 8:04 PM
Waning Gibbous, 55% visible
Pressure 29.81 in
Visibility 10.0 miles
Clouds Clear
Heat Index 98 °F
Dew Point 59 °F
Humidity 28%
Rainfall 0.00 in
Snow Depth Not available.
UV 2 out of 12
Pollen 11.60 out of 12
Air Quality Not available.
Flu Activity Not available.
METAR KHYS 042315Z AUTO 17021G27KT 10SM CLR 37/14 A2981 RMK AO1
Pressure 29.81 in
Visibility 10.0 miles
Clouds Clear
Heat Index 98 °F
Dew Point 59 °F
Humidity 28%
Rainfall 0.00 in
Snow Depth Not available.
UV 2 out of 12
Pollen 11.60 out of 12
Air Quality Not available.
Flu Activity Not available.
METAR KHYS 042315Z AUTO 17021G27KT 10SM CLR 37/14 A2981 RMK AO1

10-Day Weather Forecast

×

Almanac

Astronomy

Sep. 04, 2015 Rise Set
Actual Time
Civil Twilight
Nautical Twilight
Astronomical Twilight
Moon
Length of Visible Light
Length of Day
Tomorrow will be .
, % of the Moon is Illuminated

Today's Extremes

State Highs State Lows

Community

WunderPhotos

Upload Photos

1,852,331 photos uploaded!

WunderBlogs® & News

Nearby

Air Quality

  Air Quality AQ Index Pollutant
Not available.

Snow Depth

Station Depth Elevation

Earthquake Activity

City Distance Mag. Time & Date
Minimum magnitude displayed is 2.5.

Coastal Water Temperatures

Place Temperature

Stations

Nearby Weather Stations

Station Location Temp. Windchill Dew Point Humidity Wind Precip. Elev Updated Type